Terminal Aerodrome Forecast
Issued by NWS Duluth, MN

Home | Current Version | Previous Version | Text Only | Print | Product List | Glossary On
Versions: 1 2 3 4 5 6 7 8 9 10 11 12 13 14 15
471
FTUS43 KDLH 111140
TAFDLH
TAF
KDLH 111140Z 1112/1212 30005KT P6SM SCT090
     FM111600 29007KT P6SM BKN090
     FM112200 27008KT P6SM BKN035 BKN060
     FM120600 30008KT P6SM SCT035
     FM121100 32011G17KT P6SM FEW025=

USA.gov is the U.S. government's official web portal to all federal, state and local government web resources and services.